< < Back
Terminal Aerodrome Forecast


Current Version              Previous Versions:   1  2  3  4  5  6  7  8  9  

Terminal Aerodrome Forecast

568
FTUS42 KMLB 301131
TAFDAB
TAF
KDAB 301131Z 3012/0112 21005KT P6SM SCT035 SCT150 SCT250
     FM301800 11007KT P6SM VCTS SCT035CB BKN050
      TEMPO 3019/3022 3SM TSRA BKN030CB
     FM010000 18004KT P6SM VCSH SCT030 BKN080 BKN250
     FM010600 20004KT P6SM FEW100 SCT250=

Latest METAR

257
SAUS80 KWBC 301900 RRD
MTRDAB
METAR KDAB 301853Z 06009KT 10SM TS SCT035CB BKN055 BKN075 30/23 A3001
RMK AO2 TSB33 SLP160 OCNL LTGICCG NW TS NW MOV E CB OHD-SE-SW
MOV E VCSH NW-NE T03000233


USA.gov is the U.S. government's official web portal to all federal, state and local government web resources and services.